createdAt,value
2018-03-25T00:00:14.365Z,22.52
2018-03-25T00:01:18.359Z,25.17
2018-03-25T00:02:21.606Z,24.30
2018-03-25T00:03:24.857Z,21.80
2018-03-25T00:04:28.855Z,20.70
2018-03-25T00:05:32.846Z,21.15
2018-03-25T00:06:36.836Z,23.67
2018-03-25T00:07:40.822Z,22.75
2018-03-25T00:08:44.033Z,23.10
2018-03-25T00:09:48.094Z,24.40
2018-03-25T00:10:51.288Z,24.37
2018-03-25T00:11:54.537Z,23.65
2018-03-25T00:12:57.744Z,22.80
2018-03-25T00:14:00.988Z,21.15
2018-03-25T00:15:04.202Z,23.87
2018-03-25T00:16:07.421Z,22.95
2018-03-25T00:17:11.491Z,22.25
2018-03-25T00:18:14.720Z,22.80
2018-03-25T00:19:17.937Z,21.83
2018-03-25T00:20:21.148Z,23.25
2018-03-25T00:21:24.484Z,22.37
2018-03-25T00:22:27.710Z,23.23
2018-03-25T00:23:30.915Z,21.87
2018-03-25T00:24:34.145Z,23.10
2018-03-25T00:25:37.416Z,22.42
2018-03-25T00:26:40.639Z,22.70
2018-03-25T00:27:43.858Z,21.02
2018-03-25T00:28:47.865Z,22.37
2018-03-25T00:29:51.118Z,23.30
2018-03-25T00:30:54.329Z,22.95
2018-03-25T00:31:58.323Z,22.92
2018-03-25T00:33:02.303Z,23.10
2018-03-25T00:34:06.280Z,22.02
2018-03-25T00:35:09.507Z,23.50
2018-03-25T00:36:13.513Z,24.37
2018-03-25T00:37:17.573Z,21.55
2018-03-25T00:38:21.524Z,23.98
2018-03-25T00:39:24.773Z,23.17
2018-03-25T00:40:27.993Z,22.77
2018-03-25T00:41:31.205Z,24.10
2018-03-25T00:42:34.438Z,22.05
2018-03-25T00:43:38.439Z,24.30
2018-03-25T00:44:41.663Z,22.52
2018-03-25T00:45:44.873Z,22.73
2018-03-25T00:46:48.099Z,23.50
2018-03-25T00:47:52.083Z,21.48
2018-03-25T00:48:56.077Z,20.65
2018-03-25T00:49:59.292Z,21.70
2018-03-25T00:51:02.517Z,23.55
2018-03-25T00:52:05.749Z,22.70
2018-03-25T00:53:09.763Z,22.67
2018-03-25T00:54:13.724Z,22.37
2018-03-25T00:55:17.728Z,21.05
2018-03-25T00:56:20.967Z,23.10
2018-03-25T00:57:24.176Z,23.10
2018-03-25T00:58:27.446Z,20.90
2018-03-25T00:59:30.641Z,22.10
2018-03-25T01:00:33.859Z,21.55
2018-03-25T01:01:37.096Z,20.27
2018-03-25T01:02:40.312Z,22.33
2018-03-25T01:03:44.310Z,22.45
2018-03-25T01:04:48.298Z,21.92
2018-03-25T01:05:51.518Z,22.15
2018-03-25T01:06:54.746Z,22.37
2018-03-25T01:07:57.965Z,22.05
2018-03-25T01:09:01.934Z,20.27
2018-03-25T01:10:05.156Z,22.30
2018-03-25T01:11:09.143Z,21.55
2018-03-25T01:12:12.350Z,21.20
2018-03-25T01:13:15.576Z,20.75
2018-03-25T01:14:18.792Z,21.83
2018-03-25T01:15:21.993Z,19.70
2018-03-25T01:16:25.331Z,20.58
2018-03-25T01:17:28.525Z,21.65
2018-03-25T01:18:33.241Z,22.80
2018-03-25T01:19:36.509Z,20.85
2018-03-25T01:20:39.739Z,20.92
2018-03-25T01:21:42.918Z,20.08
2018-03-25T01:22:46.218Z,20.60
2018-03-25T01:23:49.526Z,21.37
2018-03-25T01:24:52.739Z,19.25
2018-03-25T01:25:55.961Z,18.70
2018-03-25T01:26:59.952Z,20.70
2018-03-25T01:28:03.175Z,19.42
2018-03-25T01:29:06.395Z,20.30
2018-03-25T01:30:10.374Z,20.80
2018-03-25T01:31:13.598Z,19.00
2018-03-25T01:32:17.818Z,21.58
2018-03-25T01:33:21.790Z,18.85
2018-03-25T01:34:25.776Z,19.70
2018-03-25T01:35:28.968Z,18.60
2018-03-25T01:36:33.017Z,18.98
2018-03-25T01:37:36.227Z,19.12
2018-03-25T01:38:39.447Z,20.10
2018-03-25T01:39:43.421Z,19.52
2018-03-25T01:40:46.635Z,19.55
2018-03-25T01:41:50.125Z,19.10
2018-03-25T01:42:54.106Z,19.48
2018-03-25T01:43:58.224Z,19.30
2018-03-25T01:45:02.212Z,18.75
2018-03-25T01:46:06.212Z,19.15
2018-03-25T01:47:09.547Z,19.87
2018-03-25T01:48:12.756Z,19.30
2018-03-25T01:49:15.971Z,19.75
2018-03-25T01:50:19.965Z,19.00
2018-03-25T01:51:23.945Z,18.60
2018-03-25T01:52:27.260Z,18.37
2018-03-25T01:53:31.269Z,19.45
2018-03-25T01:54:34.483Z,18.27
2018-03-25T01:55:37.712Z,20.08
2018-03-25T01:56:45.016Z,19.00
2018-03-25T01:57:48.250Z,20.02
2018-03-25T01:58:51.495Z,21.20
2018-03-25T01:59:54.722Z,19.92
2018-03-25T02:00:57.914Z,18.50
2018-03-25T02:02:01.136Z,17.87
2018-03-25T02:03:04.371Z,20.00
2018-03-25T02:04:07.595Z,19.20
2018-03-25T02:05:10.817Z,19.00
2018-03-25T02:06:14.043Z,18.90
2018-03-25T02:07:18.029Z,17.95
2018-03-25T02:08:21.242Z,19.17
2018-03-25T02:09:24.472Z,19.23
2018-03-25T02:10:27.710Z,18.08
2018-03-25T02:11:31.763Z,18.60
2018-03-25T02:12:34.964Z,18.87
2018-03-25T02:13:38.174Z,19.87
2018-03-25T02:14:41.407Z,17.92
2018-03-25T02:15:44.624Z,18.67
2018-03-25T02:16:48.622Z,19.37
2018-03-25T02:17:52.616Z,19.00
2018-03-25T02:18:55.856Z,18.77
2018-03-25T02:19:59.081Z,19.73
2018-03-25T02:21:02.294Z,19.85
2018-03-25T02:22:05.512Z,20.40
2018-03-25T02:23:08.751Z,18.45
2018-03-25T02:24:12.772Z,19.00
2018-03-25T02:25:15.980Z,18.80
2018-03-25T02:26:19.254Z,19.33
2018-03-25T02:27:23.233Z,18.55
2018-03-25T02:28:26.433Z,20.55
2018-03-25T02:29:29.696Z,21.73
2018-03-25T02:30:32.937Z,19.05
2018-03-25T02:31:36.143Z,19.10
2018-03-25T02:32:39.356Z,20.77
2018-03-25T02:33:42.644Z,17.65
2018-03-25T02:34:45.851Z,19.58
2018-03-25T02:35:49.057Z,16.73
2018-03-25T02:36:53.056Z,18.73
2018-03-25T02:37:57.799Z,18.30
2018-03-25T02:39:01.816Z,17.05
2018-03-25T02:40:05.029Z,17.75
2018-03-25T02:41:08.252Z,19.92
2018-03-25T02:42:12.280Z,19.87
2018-03-25T02:43:15.501Z,19.25
2018-03-25T02:44:18.741Z,18.15
2018-03-25T02:45:22.761Z,19.12
2018-03-25T02:46:25.974Z,18.60
2018-03-25T02:47:29.191Z,17.37
2018-03-25T02:48:33.173Z,18.12
2018-03-25T02:49:36.447Z,19.37
2018-03-25T02:50:39.664Z,19.40
2018-03-25T02:51:42.938Z,18.85
2018-03-25T02:52:46.926Z,18.12
2018-03-25T02:53:50.153Z,18.60
2018-03-25T02:54:53.464Z,19.02
2018-03-25T02:55:56.680Z,18.23
2018-03-25T02:57:00.657Z,19.48
2018-03-25T02:58:03.884Z,19.67
2018-03-25T02:59:07.160Z,18.67
2018-03-25T03:00:11.153Z,19.20
2018-03-25T03:01:15.133Z,18.37
2018-03-25T03:02:18.340Z,18.02
2018-03-25T03:03:22.342Z,19.73
2018-03-25T03:04:26.325Z,18.98
2018-03-25T03:05:30.317Z,18.05
2018-03-25T03:06:33.538Z,17.23
2018-03-25T03:07:37.512Z,19.05
2018-03-25T03:08:41.581Z,19.80
2018-03-25T03:09:44.786Z,18.35
2018-03-25T03:10:48.031Z,18.98
2018-03-25T03:11:51.238Z,17.50
2018-03-25T03:12:54.459Z,18.30
2018-03-25T03:13:58.462Z,18.35
2018-03-25T03:15:01.701Z,18.23
2018-03-25T03:16:04.927Z,17.37
2018-03-25T03:17:08.893Z,18.60
2018-03-25T03:18:12.119Z,19.00
2018-03-25T03:19:16.089Z,18.85
2018-03-25T03:20:20.099Z,18.70
2018-03-25T03:21:24.077Z,18.58
2018-03-25T03:22:27.308Z,17.55
2018-03-25T03:23:30.570Z,18.98
2018-03-25T03:24:34.568Z,19.77
2018-03-25T03:25:38.668Z,19.95
2018-03-25T03:26:41.832Z,20.98
2018-03-25T03:27:45.160Z,17.92
2018-03-25T03:28:48.380Z,19.95
2018-03-25T03:29:51.644Z,17.83
2018-03-25T03:30:54.873Z,18.65
2018-03-25T03:31:58.860Z,18.45
2018-03-25T03:33:02.193Z,19.08
2018-03-25T03:34:05.417Z,18.48
2018-03-25T03:35:08.644Z,18.52
2018-03-25T03:36:11.867Z,17.35
2018-03-25T03:37:15.105Z,18.25
2018-03-25T03:38:19.095Z,18.98
2018-03-25T03:39:23.102Z,19.67
2018-03-25T03:40:26.290Z,18.70
2018-03-25T03:41:29.538Z,17.42
2018-03-25T03:42:32.876Z,20.37
2018-03-25T03:43:36.054Z,18.60
2018-03-25T03:44:39.273Z,18.70
2018-03-25T03:45:42.526Z,17.98
2018-03-25T03:46:47.245Z,18.15
2018-03-25T03:47:50.462Z,18.37
2018-03-25T03:48:54.439Z,17.95
2018-03-25T03:49:58.436Z,17.62
2018-03-25T03:51:02.437Z,17.77
2018-03-25T03:52:05.658Z,19.02
2018-03-25T03:53:08.879Z,18.40
2018-03-25T03:54:12.104Z,16.92
2018-03-25T03:55:16.088Z,17.08
2018-03-25T03:56:20.074Z,17.48
2018-03-25T03:57:23.296Z,16.70
2018-03-25T03:58:27.301Z,17.02
2018-03-25T03:59:31.280Z,16.80
2018-03-25T04:00:35.293Z,17.30
2018-03-25T04:01:39.310Z,17.65
2018-03-25T04:02:42.523Z,16.30
2018-03-25T04:03:45.746Z,15.15
2018-03-25T04:04:49.880Z,17.40
2018-03-25T04:05:53.107Z,16.27
2018-03-25T04:06:56.503Z,15.93
2018-03-25T04:07:59.716Z,15.73
2018-03-25T04:09:02.966Z,14.98
2018-03-25T04:10:06.243Z,16.12
2018-03-25T04:11:09.495Z,15.98
2018-03-25T04:12:12.720Z,15.80
2018-03-25T04:13:15.952Z,14.65
2018-03-25T04:14:19.184Z,15.50
2018-03-25T04:15:22.420Z,15.73
2018-03-25T04:16:25.696Z,15.13
2018-03-25T04:17:28.951Z,15.90
2018-03-25T04:18:32.945Z,15.52
2018-03-25T04:19:36.924Z,16.23
2018-03-25T04:20:40.168Z,14.87
2018-03-25T04:21:43.401Z,16.00
2018-03-25T04:22:46.617Z,15.32
2018-03-25T04:23:50.024Z,15.10
2018-03-25T04:24:53.248Z,15.85
2018-03-25T04:25:56.481Z,15.90
2018-03-25T04:26:59.699Z,17.45
2018-03-25T04:28:02.913Z,14.50
2018-03-25T04:29:07.042Z,14.35
2018-03-25T04:30:11.021Z,15.07
2018-03-25T04:31:14.288Z,15.70
2018-03-25T04:32:17.582Z,15.23
2018-03-25T04:33:20.832Z,15.40
2018-03-25T04:34:24.049Z,15.05
2018-03-25T04:35:27.280Z,15.30
2018-03-25T04:36:30.575Z,16.42
2018-03-25T04:37:33.785Z,15.93
2018-03-25T04:38:37.131Z,14.82
2018-03-25T04:39:40.344Z,15.57
2018-03-25T04:40:43.549Z,16.00
2018-03-25T04:41:47.531Z,14.57
2018-03-25T04:42:50.752Z,15.82
2018-03-25T04:43:54.068Z,16.98
2018-03-25T04:44:57.277Z,16.17
2018-03-25T04:46:00.519Z,15.68
2018-03-25T04:47:03.768Z,15.32
2018-03-25T04:48:07.761Z,16.08
2018-03-25T04:49:11.001Z,15.45
2018-03-25T04:50:14.217Z,15.40
2018-03-25T04:51:17.453Z,16.27
2018-03-25T04:52:21.537Z,15.82
2018-03-25T04:53:25.529Z,15.80
2018-03-25T04:54:28.725Z,15.85
2018-03-25T04:55:32.041Z,16.15
2018-03-25T04:56:35.273Z,15.48
2018-03-25T04:57:38.525Z,15.90
2018-03-25T04:58:41.751Z,15.43
2018-03-25T04:59:44.976Z,14.02
2018-03-25T05:00:48.233Z,16.25
2018-03-25T05:01:51.436Z,15.98
2018-03-25T05:02:54.672Z,18.50
2018-03-25T05:03:57.896Z,16.80
2018-03-25T05:05:01.109Z,15.73
2018-03-25T05:06:04.320Z,15.20
2018-03-25T05:07:07.542Z,16.27
2018-03-25T05:08:10.761Z,16.30
2018-03-25T05:09:13.989Z,14.30
2018-03-25T05:10:17.204Z,16.80
2018-03-25T05:11:20.454Z,17.15
2018-03-25T05:12:23.660Z,17.37
2018-03-25T05:13:26.892Z,15.65
2018-03-25T05:14:30.114Z,16.02
2018-03-25T05:15:34.139Z,15.43
2018-03-25T05:16:37.368Z,15.73
2018-03-25T05:17:40.596Z,15.55
2018-03-25T05:18:43.831Z,15.85
2018-03-25T05:19:47.056Z,15.98
2018-03-25T05:20:51.053Z,16.67
2018-03-25T05:21:54.273Z,15.60
2018-03-25T05:22:57.475Z,15.82
2018-03-25T05:24:00.697Z,16.25
2018-03-25T05:25:04.740Z,13.95
2018-03-25T05:26:07.969Z,15.35
2018-03-25T05:27:12.012Z,15.45
2018-03-25T05:28:15.239Z,14.43
2018-03-25T05:29:18.458Z,14.05
2018-03-25T05:30:21.788Z,15.55
2018-03-25T05:31:24.996Z,13.80
2018-03-25T05:32:29.025Z,14.80
2018-03-25T05:33:32.250Z,13.10
2018-03-25T05:34:35.523Z,14.57
2018-03-25T05:35:38.790Z,13.70
2018-03-25T05:36:41.986Z,14.60
2018-03-25T05:37:45.219Z,13.62
2018-03-25T05:38:48.430Z,13.85
2018-03-25T05:39:51.649Z,12.30
2018-03-25T05:40:54.860Z,12.90
2018-03-25T05:41:58.844Z,13.25
2018-03-25T05:43:02.063Z,13.15
2018-03-25T05:44:05.278Z,12.90
2018-03-25T05:45:08.488Z,14.05
2018-03-25T05:46:11.722Z,14.45
2018-03-25T05:47:15.019Z,12.43
2018-03-25T05:48:18.170Z,13.25
2018-03-25T05:49:22.147Z,11.60
2018-03-25T05:50:26.134Z,12.60
2018-03-25T05:51:29.352Z,12.85
2018-03-25T05:52:33.339Z,13.82
2018-03-25T05:53:37.336Z,11.40
2018-03-25T05:54:40.597Z,11.98
2018-03-25T05:55:43.857Z,12.02
2018-03-25T05:56:47.087Z,12.68
2018-03-25T05:57:50.322Z,12.20
2018-03-25T05:58:53.556Z,12.27
2018-03-25T05:59:57.539Z,11.88
2018-03-25T06:01:00.740Z,11.10
2018-03-25T06:02:04.732Z,10.95
2018-03-25T06:03:07.948Z,10.90
2018-03-25T06:04:11.157Z,11.20
2018-03-25T06:05:14.401Z,11.10
2018-03-25T06:06:18.396Z,10.65
2018-03-25T06:07:22.489Z,11.35
2018-03-25T06:08:26.473Z,11.18
2018-03-25T06:09:29.685Z,10.02
2018-03-25T06:10:32.980Z,10.65
2018-03-25T06:11:36.201Z,11.63
2018-03-25T06:12:39.413Z,10.65
2018-03-25T06:13:42.735Z,10.85
2018-03-25T06:14:46.021Z,9.88
2018-03-25T06:15:49.294Z,11.68
2018-03-25T06:16:52.444Z,10.35
2018-03-25T06:17:55.682Z,10.90
2018-03-25T06:18:58.885Z,10.52
2018-03-25T06:20:02.227Z,10.75
2018-03-25T06:21:06.205Z,11.20
2018-03-25T06:22:10.194Z,12.07
2018-03-25T06:23:13.430Z,11.98
2018-03-25T06:24:16.640Z,12.02
2018-03-25T06:25:19.857Z,10.65
2018-03-25T06:26:23.858Z,11.30
2018-03-25T06:27:27.834Z,11.23
2018-03-25T06:28:31.071Z,10.35
2018-03-25T06:29:34.299Z,10.55
2018-03-25T06:30:37.504Z,10.70
2018-03-25T06:31:41.493Z,12.40
2018-03-25T06:32:44.733Z,10.45
2018-03-25T06:33:47.956Z,11.80
2018-03-25T06:34:51.990Z,12.18
2018-03-25T06:35:55.213Z,11.70
2018-03-25T06:36:58.433Z,12.20
2018-03-25T06:38:02.480Z,11.52
2018-03-25T06:39:05.698Z,12.10
2018-03-25T06:40:08.947Z,11.48
2018-03-25T06:41:12.173Z,10.85
2018-03-25T06:42:15.518Z,11.10
2018-03-25T06:43:18.765Z,10.55
2018-03-25T06:44:22.752Z,11.98
2018-03-25T06:45:26.761Z,11.68
2018-03-25T06:46:30.747Z,10.43
2018-03-25T06:47:33.952Z,12.25
2018-03-25T06:48:37.971Z,11.02
2018-03-25T06:49:41.207Z,12.55
2018-03-25T06:50:44.403Z,11.10
2018-03-25T06:51:48.394Z,11.55
2018-03-25T06:52:51.623Z,11.63
2018-03-25T06:53:54.832Z,11.80
2018-03-25T06:54:58.061Z,11.68
2018-03-25T06:56:01.356Z,11.02
2018-03-25T06:57:04.617Z,10.90
2018-03-25T06:58:08.700Z,11.18
2018-03-25T06:59:11.889Z,12.35
2018-03-25T07:00:15.168Z,11.25
2018-03-25T07:01:18.412Z,11.00
2018-03-25T07:02:21.635Z,10.23
2018-03-25T07:03:24.847Z,11.38
2018-03-25T07:04:28.863Z,10.75
2018-03-25T07:05:32.083Z,10.40
2018-03-25T07:06:35.305Z,11.25
2018-03-25T07:07:39.290Z,11.35
2018-03-25T07:08:42.601Z,11.60
2018-03-25T07:09:45.778Z,10.70
2018-03-25T07:10:50.734Z,11.50
2018-03-25T07:11:53.966Z,10.65
2018-03-25T07:12:57.974Z,11.07
2018-03-25T07:14:02.231Z,11.38
2018-03-25T07:15:05.441Z,11.15
2018-03-25T07:16:08.684Z,10.15
2018-03-25T07:17:11.907Z,10.80
2018-03-25T07:18:15.136Z,10.90
2018-03-25T07:19:18.357Z,10.13
2018-03-25T07:20:21.619Z,10.70
2018-03-25T07:21:24.853Z,10.90
2018-03-25T07:22:28.175Z,11.02
2018-03-25T07:23:31.375Z,10.60
2018-03-25T07:24:34.597Z,9.98
2018-03-25T07:25:37.816Z,10.93
2018-03-25T07:26:41.055Z,10.55
2018-03-25T07:27:44.291Z,11.32
2018-03-25T07:28:47.513Z,10.15
2018-03-25T07:29:50.721Z,10.70
2018-03-25T07:30:54.708Z,10.63
2018-03-25T07:31:57.943Z,10.80
2018-03-25T07:33:01.159Z,10.40
2018-03-25T07:34:04.387Z,10.43
2018-03-25T07:35:08.400Z,11.52
2018-03-25T07:36:11.619Z,12.15
2018-03-25T07:37:14.833Z,11.32
2018-03-25T07:38:18.815Z,11.43
2018-03-25T07:39:22.050Z,11.75
2018-03-25T07:40:25.277Z,12.05
2018-03-25T07:41:28.512Z,11.07
2018-03-25T07:42:32.558Z,11.68
2018-03-25T07:43:35.779Z,10.75
2018-03-25T07:44:38.979Z,11.70
2018-03-25T07:45:42.220Z,11.57
2018-03-25T07:46:45.440Z,10.95
2018-03-25T07:47:49.519Z,12.60
2018-03-25T07:48:52.728Z,12.35
2018-03-25T07:49:56.020Z,11.38
2018-03-25T07:50:59.167Z,12.43
2018-03-25T07:52:03.214Z,10.77
2018-03-25T07:53:06.545Z,11.25
2018-03-25T07:54:09.756Z,10.68
2018-03-25T07:55:12.993Z,11.82
2018-03-25T07:56:16.261Z,10.77
2018-03-25T07:57:19.504Z,11.65
2018-03-25T07:58:22.729Z,11.50
2018-03-25T07:59:25.957Z,11.25
2018-03-25T08:00:29.937Z,12.55
2018-03-25T08:01:33.156Z,12.77
2018-03-25T08:02:36.392Z,12.40
2018-03-25T08:03:39.621Z,10.68
2018-03-25T08:04:42.859Z,12.07
2018-03-25T08:05:46.078Z,12.57
2018-03-25T08:06:50.067Z,11.45
2018-03-25T08:07:54.041Z,11.40
2018-03-25T08:08:57.262Z,12.00
2018-03-25T08:10:00.608Z,11.55
2018-03-25T08:11:03.797Z,10.75
2018-03-25T08:12:07.038Z,11.48
2018-03-25T08:13:10.265Z,12.30
2018-03-25T08:14:13.484Z,11.88
2018-03-25T08:15:17.461Z,11.38
2018-03-25T08:16:21.466Z,12.32
2018-03-25T08:17:25.487Z,11.77
2018-03-25T08:18:29.467Z,10.55
2018-03-25T08:19:33.456Z,11.77
2018-03-25T08:20:36.767Z,11.40
2018-03-25T08:21:40.747Z,11.63
2018-03-25T08:22:44.766Z,12.23
2018-03-25T08:23:48.794Z,11.32
2018-03-25T08:24:52.087Z,11.07
2018-03-25T08:25:55.302Z,12.15
2018-03-25T08:26:58.620Z,11.95
2018-03-25T08:28:02.599Z,11.30
2018-03-25T08:29:05.812Z,12.05
2018-03-25T08:30:09.054Z,11.60
2018-03-25T08:31:12.256Z,12.32
2018-03-25T08:32:16.255Z,12.15
2018-03-25T08:33:20.241Z,12.43
2018-03-25T08:34:23.478Z,11.75
2018-03-25T08:35:26.773Z,11.82
2018-03-25T08:36:30.025Z,11.95
2018-03-25T08:37:34.054Z,12.35
2018-03-25T08:38:37.274Z,11.50
2018-03-25T08:39:40.470Z,11.75
2018-03-25T08:40:44.453Z,12.57
2018-03-25T08:41:48.548Z,12.37
2018-03-25T08:42:51.796Z,11.65
2018-03-25T08:43:55.017Z,11.38
2018-03-25T08:44:58.332Z,11.65
2018-03-25T08:46:02.344Z,11.90
2018-03-25T08:47:05.584Z,11.10
2018-03-25T08:48:11.862Z,12.27
2018-03-25T08:49:15.852Z,11.18
2018-03-25T08:50:19.140Z,11.82
2018-03-25T08:51:23.144Z,11.40
2018-03-25T08:52:27.134Z,13.05
2018-03-25T08:53:30.367Z,11.85
2018-03-25T08:54:33.617Z,13.02
2018-03-25T08:55:37.679Z,12.55
2018-03-25T08:56:40.828Z,13.23
2018-03-25T08:57:44.049Z,13.80
2018-03-25T08:58:47.276Z,13.43
2018-03-25T08:59:51.266Z,14.73
2018-03-25T09:00:55.246Z,13.68
2018-03-25T09:03:07.962Z,12.90
2018-03-25T09:04:11.997Z,13.40
2018-03-25T09:05:15.231Z,14.30
2018-03-25T09:06:18.510Z,14.10
2018-03-25T09:07:21.718Z,13.90
2018-03-25T09:08:24.937Z,12.40
2018-03-25T09:09:28.166Z,13.75
2018-03-25T09:10:31.428Z,14.18
2018-03-25T09:11:34.626Z,13.98
2018-03-25T09:12:37.838Z,14.38
2018-03-25T09:13:41.816Z,13.82
2018-03-25T09:14:45.159Z,14.13
2018-03-25T09:15:48.387Z,14.23
2018-03-25T09:16:51.612Z,13.88
2018-03-25T09:17:54.844Z,13.75
2018-03-25T09:18:58.032Z,14.15
2018-03-25T09:20:01.266Z,13.98
2018-03-25T09:21:04.489Z,14.70
2018-03-25T09:22:07.741Z,15.02
2018-03-25T09:23:10.929Z,14.10
2018-03-25T09:24:14.163Z,14.05
2018-03-25T09:25:18.130Z,14.70
2018-03-25T09:26:21.340Z,15.65
2018-03-25T09:27:24.571Z,15.00
2018-03-25T09:28:27.807Z,14.70
2018-03-25T09:29:31.018Z,13.10
2018-03-25T09:30:34.255Z,14.30
2018-03-25T09:31:37.483Z,15.18
2018-03-25T09:32:40.703Z,15.18
2018-03-25T09:33:43.953Z,14.95
2018-03-25T09:34:47.179Z,14.35
2018-03-25T09:35:50.412Z,13.73
2018-03-25T09:36:53.663Z,14.65
2018-03-25T09:37:56.877Z,14.27
2018-03-25T09:39:00.081Z,14.20
2018-03-25T09:40:03.300Z,15.52
2018-03-25T09:41:06.531Z,14.10
2018-03-25T09:42:09.861Z,14.82
2018-03-25T09:43:13.052Z,16.85
2018-03-25T09:44:16.286Z,16.42
2018-03-25T09:45:19.486Z,15.60
2018-03-25T09:46:22.710Z,16.35
2018-03-25T09:47:26.690Z,15.63
2018-03-25T09:48:29.899Z,16.55
2018-03-25T09:49:33.933Z,16.20
2018-03-25T09:50:37.935Z,16.05
2018-03-25T09:51:41.164Z,14.02
2018-03-25T09:52:45.897Z,15.13
2018-03-25T09:53:49.121Z,15.95
2018-03-25T09:54:52.391Z,14.65
2018-03-25T09:55:55.602Z,15.73
2018-03-25T09:56:58.813Z,15.50
2018-03-25T09:58:02.045Z,14.90
2018-03-25T09:59:05.268Z,15.48
2018-03-25T10:00:08.469Z,14.73
2018-03-25T10:01:30.416Z,16.50
2018-03-25T10:02:39.230Z,16.45
2018-03-25T10:03:42.448Z,16.25
2018-03-25T10:04:45.707Z,16.10
2018-03-25T10:05:48.861Z,15.57
2018-03-25T10:06:52.850Z,16.05
2018-03-25T10:07:56.062Z,16.50
2018-03-25T10:08:59.461Z,16.62
2018-03-25T10:10:02.709Z,16.02
2018-03-25T10:11:06.744Z,17.70
2018-03-25T10:12:10.006Z,16.87
2018-03-25T10:13:14.017Z,16.25
2018-03-25T10:14:17.993Z,16.02
2018-03-25T10:15:21.224Z,15.90
2018-03-25T10:16:24.452Z,16.00
2018-03-25T10:17:27.753Z,16.02
2018-03-25T10:18:31.785Z,15.77
2018-03-25T10:19:35.016Z,16.00
2018-03-25T10:20:38.241Z,17.05
2018-03-25T10:21:41.464Z,17.85
2018-03-25T10:22:46.307Z,15.95
2018-03-25T10:23:49.640Z,16.70
2018-03-25T10:24:52.881Z,15.45
2018-03-25T10:25:57.635Z,16.50
2018-03-25T10:27:00.851Z,16.02
2018-03-25T10:28:04.167Z,17.50
2018-03-25T10:29:07.429Z,16.05
2018-03-25T10:30:10.602Z,17.77
2018-03-25T10:31:13.819Z,17.83
2018-03-25T10:32:17.808Z,17.60
2018-03-25T10:33:21.344Z,18.00
2018-03-25T10:34:24.654Z,20.15
2018-03-25T10:35:27.876Z,23.75
2018-03-25T10:36:31.866Z,18.02
2018-03-25T10:37:35.090Z,17.55
2018-03-25T10:38:38.351Z,16.48
2018-03-25T10:39:42.345Z,17.40
2018-03-25T10:40:46.368Z,16.00
2018-03-25T10:41:49.699Z,16.87
2018-03-25T10:42:52.908Z,16.98
2018-03-25T10:43:56.216Z,17.77
2018-03-25T10:45:00.222Z,17.27
2018-03-25T10:46:03.470Z,16.65
2018-03-25T10:47:06.723Z,16.45
2018-03-25T10:48:09.940Z,16.70
2018-03-25T10:49:13.942Z,16.75
2018-03-25T10:50:17.947Z,17.60
2018-03-25T10:51:21.962Z,17.30
2018-03-25T10:52:25.180Z,18.10
2018-03-25T10:53:28.416Z,16.52
2018-03-25T10:54:32.431Z,16.10
2018-03-25T10:55:35.705Z,17.00
2018-03-25T10:56:39.692Z,17.20
2018-03-25T10:57:43.702Z,18.08
2018-03-25T10:58:47.713Z,16.17
2018-03-25T10:59:51.702Z,17.27
2018-03-25T11:00:55.699Z,16.30
2018-03-25T11:01:59.702Z,17.65
2018-03-25T11:03:03.700Z,15.98
2018-03-25T11:04:07.714Z,16.87
2018-03-25T11:05:11.722Z,16.50
2018-03-25T11:06:14.994Z,16.48
2018-03-25T11:07:18.993Z,16.20
2018-03-25T11:08:22.983Z,16.73
2018-03-25T11:09:26.972Z,15.35
2018-03-25T11:10:30.220Z,16.00
2018-03-25T11:11:33.417Z,17.17
2018-03-25T11:12:36.655Z,16.50
2018-03-25T11:13:40.661Z,15.30
2018-03-25T11:14:44.644Z,15.32
2018-03-25T11:15:47.941Z,15.35
2018-03-25T11:16:51.136Z,16.40
2018-03-25T11:17:54.379Z,16.95
2018-03-25T11:18:57.718Z,14.98
2018-03-25T11:20:00.951Z,15.07
2018-03-25T11:21:04.185Z,14.35
2018-03-25T11:22:07.440Z,14.52
2018-03-25T11:23:11.416Z,15.77
2018-03-25T11:24:14.629Z,13.40
2018-03-25T11:25:17.868Z,12.55
2018-03-25T11:26:21.862Z,13.55
2018-03-25T11:27:25.100Z,15.00
2018-03-25T11:28:28.397Z,14.00
2018-03-25T11:29:31.659Z,12.10
2018-03-25T11:30:34.885Z,12.50
2018-03-25T11:31:38.110Z,11.80
2018-03-25T11:32:42.109Z,11.93
2018-03-25T11:33:46.112Z,12.73
2018-03-25T11:34:50.114Z,11.40
2018-03-25T11:35:54.180Z,12.52
2018-03-25T11:36:57.385Z,13.13
2018-03-25T11:38:01.626Z,11.95
2018-03-25T11:39:05.176Z,13.38
2018-03-25T11:40:08.413Z,13.35
2018-03-25T11:41:11.638Z,13.43
2018-03-25T11:42:15.675Z,13.50
2018-03-25T11:43:19.656Z,13.60
2018-03-25T11:44:23.648Z,12.05
2018-03-25T11:45:26.869Z,14.38
2018-03-25T11:46:30.101Z,12.30
2018-03-25T11:47:33.352Z,13.40
2018-03-25T11:48:36.568Z,14.65
2018-03-25T11:49:39.787Z,13.48
2018-03-25T11:50:43.010Z,14.50
2018-03-25T11:51:46.256Z,13.68
2018-03-25T11:52:49.474Z,13.38
2018-03-25T11:53:52.701Z,14.63
2018-03-25T11:54:56.815Z,14.57
2018-03-25T11:56:00.038Z,14.77
2018-03-25T11:57:03.280Z,14.40
2018-03-25T11:58:06.509Z,16.75
2018-03-25T11:59:09.751Z,14.00
2018-03-25T12:00:13.006Z,12.85
2018-03-25T12:01:17.002Z,15.27
2018-03-25T12:02:20.980Z,15.35
2018-03-25T12:03:24.210Z,15.55
2018-03-25T12:04:28.215Z,14.95
2018-03-25T12:05:32.211Z,12.68
2018-03-25T12:06:36.193Z,14.32
2018-03-25T12:07:40.190Z,13.15
2018-03-25T12:08:43.514Z,13.62
2018-03-25T12:09:46.790Z,12.27
2018-03-25T12:10:50.774Z,12.05
2018-03-25T12:11:54.788Z,14.38
2018-03-25T12:12:58.079Z,14.32
2018-03-25T12:14:01.324Z,13.62
2018-03-25T12:15:04.529Z,12.98
2018-03-25T12:16:08.544Z,12.93
2018-03-25T12:17:11.790Z,13.48
2018-03-25T12:18:15.013Z,13.70
2018-03-25T12:19:18.250Z,14.25
2018-03-25T12:20:22.304Z,14.82
2018-03-25T12:21:25.628Z,13.77
2018-03-25T12:22:28.837Z,13.43
2018-03-25T12:23:32.063Z,12.65
2018-03-25T12:24:35.304Z,12.37
2018-03-25T12:25:39.329Z,10.52
2018-03-25T12:26:42.563Z,13.13
2018-03-25T12:27:45.785Z,13.20
2018-03-25T12:28:49.022Z,13.65
2018-03-25T12:29:52.255Z,11.90
2018-03-25T12:30:55.484Z,12.27
2018-03-25T12:31:58.720Z,12.02
2018-03-25T12:33:02.714Z,12.57
2018-03-25T12:34:06.695Z,12.27
2018-03-25T12:35:10.689Z,10.75
2018-03-25T12:36:13.912Z,11.95
2018-03-25T12:37:17.138Z,11.02
2018-03-25T12:38:20.349Z,11.95
2018-03-25T12:39:24.348Z,11.18
2018-03-25T12:40:28.344Z,11.45
2018-03-25T12:41:32.397Z,11.90
2018-03-25T12:42:35.621Z,11.50
2018-03-25T12:43:38.844Z,12.30
2018-03-25T12:44:42.069Z,11.70
2018-03-25T12:45:45.294Z,10.73
2018-03-25T12:46:49.274Z,12.80
2018-03-25T12:47:53.329Z,10.57
2018-03-25T12:48:56.578Z,10.18
2018-03-25T12:50:00.550Z,11.77
2018-03-25T12:51:03.912Z,11.45
2018-03-25T12:52:07.152Z,10.80
2018-03-25T12:53:10.371Z,12.63
2018-03-25T12:54:13.637Z,11.35
2018-03-25T12:55:16.866Z,11.93
2018-03-25T12:56:20.132Z,11.52
2018-03-25T12:57:23.424Z,11.40
2018-03-25T12:58:26.651Z,11.00
2018-03-25T12:59:30.820Z,10.98
2018-03-25T13:00:34.064Z,12.55
2018-03-25T13:01:37.346Z,11.95
2018-03-25T13:02:40.545Z,12.93
2018-03-25T13:03:44.550Z,12.85
2018-03-25T13:04:47.782Z,13.62
2018-03-25T13:05:51.798Z,13.85
2018-03-25T13:06:55.885Z,12.60
2018-03-25T13:07:59.087Z,12.85
2018-03-25T13:09:02.341Z,12.73
2018-03-25T13:10:05.705Z,12.00
2018-03-25T13:11:08.935Z,12.70
2018-03-25T13:12:12.169Z,11.70
2018-03-25T13:13:15.402Z,12.43
2018-03-25T13:14:18.681Z,12.68
2018-03-25T13:15:22.674Z,11.52
2018-03-25T13:16:26.664Z,12.52
2018-03-25T13:17:30.666Z,12.35
2018-03-25T13:18:34.659Z,12.00
2018-03-25T13:19:37.989Z,12.65
2018-03-25T13:20:41.234Z,12.82
2018-03-25T13:21:45.235Z,12.90
2018-03-25T13:22:49.280Z,12.50
2018-03-25T13:23:52.521Z,12.88
2018-03-25T13:24:56.530Z,12.30
2018-03-25T13:26:00.534Z,12.65
2018-03-25T13:27:04.532Z,11.18
2018-03-25T13:28:08.520Z,12.10
2018-03-25T13:29:12.544Z,11.40
2018-03-25T13:30:15.787Z,12.20
2018-03-25T13:31:20.567Z,12.25
2018-03-25T13:32:23.797Z,11.95
2018-03-25T13:33:27.129Z,11.85
2018-03-25T13:34:30.350Z,10.68
2018-03-25T13:35:33.578Z,14.05
2018-03-25T13:36:36.822Z,10.70
2018-03-25T13:37:40.821Z,11.07
2018-03-25T13:38:44.040Z,11.35